sensor_id;sensor_type;location;lat;lon;timestamp;temperature;humidity
32215;DHT22;18708;53.124;23.190;2023-01-06T00:00:38;-0.10;99.90
32215;DHT22;18708;53.124;23.190;2023-01-06T00:03:04;0.00;99.90
32215;DHT22;18708;53.124;23.190;2023-01-06T00:05:30;0.00;99.90
32215;DHT22;18708;53.124;23.190;2023-01-06T00:07:56;-0.10;99.90
32215;DHT22;18708;53.124;23.190;2023-01-06T00:10:22;-0.20;99.90
32215;DHT22;18708;53.124;23.190;2023-01-06T00:12:48;-0.20;99.90
32215;DHT22;18708;53.124;23.190;2023-01-06T00:15:15;-0.30;99.90
32215;DHT22;18708;53.124;23.190;2023-01-06T00:17:41;-0.40;99.90
32215;DHT22;18708;53.124;23.190;2023-01-06T00:20:07;-0.40;99.90
32215;DHT22;18708;53.124;23.190;2023-01-06T00:22:33;-0.50;99.90
32215;DHT22;18708;53.124;23.190;2023-01-06T00:24:59;-0.50;99.90
32215;DHT22;18708;53.124;23.190;2023-01-06T00:27:25;-0.50;99.90
32215;DHT22;18708;53.124;23.190;2023-01-06T00:29:50;-0.50;99.90
32215;DHT22;18708;53.124;23.190;2023-01-06T00:32:17;-0.50;99.90
32215;DHT22;18708;53.124;23.190;2023-01-06T00:34:43;-0.50;99.90
32215;DHT22;18708;53.124;23.190;2023-01-06T00:37:09;-0.50;99.90
32215;DHT22;18708;53.124;23.190;2023-01-06T00:39:34;-0.50;99.90
32215;DHT22;18708;53.124;23.190;2023-01-06T00:42:00;-0.60;99.90
32215;DHT22;18708;53.124;23.190;2023-01-06T00:44:40;-0.60;99.90
32215;DHT22;18708;53.124;23.190;2023-01-06T00:47:08;-0.60;99.90
32215;DHT22;18708;53.124;23.190;2023-01-06T00:49:35;-0.60;99.90
32215;DHT22;18708;53.124;23.190;2023-01-06T00:52:00;-0.60;99.90
32215;DHT22;18708;53.124;23.190;2023-01-06T00:54:26;-0.60;99.90
32215;DHT22;18708;53.124;23.190;2023-01-06T00:56:52;-0.60;99.90
32215;DHT22;18708;53.124;23.190;2023-01-06T00:59:21;-0.70;99.90
32215;DHT22;18708;53.124;23.190;2023-01-06T01:01:49;-0.80;99.90
32215;DHT22;18708;53.124;23.190;2023-01-06T01:04:15;-0.80;99.90
32215;DHT22;18708;53.124;23.190;2023-01-06T01:06:45;-0.80;99.90
32215;DHT22;18708;53.124;23.190;2023-01-06T01:09:17;-0.80;99.90
32215;DHT22;18708;53.124;23.190;2023-01-06T01:11:43;-0.90;99.90
32215;DHT22;18708;53.124;23.190;2023-01-06T01:14:27;-1.00;99.90
32215;DHT22;18708;53.124;23.190;2023-01-06T01:16:53;-1.00;99.90
32215;DHT22;18708;53.124;23.190;2023-01-06T01:19:19;-1.00;99.90
32215;DHT22;18708;53.124;23.190;2023-01-06T01:21:45;-1.10;99.90
32215;DHT22;18708;53.124;23.190;2023-01-06T01:24:12;-1.10;99.90
32215;DHT22;18708;53.124;23.190;2023-01-06T01:26:37;-1.20;99.90
32215;DHT22;18708;53.124;23.190;2023-01-06T01:29:03;-1.30;99.90
32215;DHT22;18708;53.124;23.190;2023-01-06T01:31:29;-1.30;99.90
32215;DHT22;18708;53.124;23.190;2023-01-06T01:33:55;-1.30;99.90
32215;DHT22;18708;53.124;23.190;2023-01-06T01:36:21;-1.30;99.90
32215;DHT22;18708;53.124;23.190;2023-01-06T01:38:46;-1.40;99.90
32215;DHT22;18708;53.124;23.190;2023-01-06T01:41:18;-1.30;99.90
32215;DHT22;18708;53.124;23.190;2023-01-06T01:43:49;-1.30;99.90
32215;DHT22;18708;53.124;23.190;2023-01-06T01:46:39;-1.20;99.90
32215;DHT22;18708;53.124;23.190;2023-01-06T01:49:07;-1.20;99.90
32215;DHT22;18708;53.124;23.190;2023-01-06T01:51:40;-1.30;99.90
32215;DHT22;18708;53.124;23.190;2023-01-06T01:54:11;-1.30;99.90
32215;DHT22;18708;53.124;23.190;2023-01-06T01:56:40;-1.40;99.90
32215;DHT22;18708;53.124;23.190;2023-01-06T01:59:17;-1.50;99.90
32215;DHT22;18708;53.124;23.190;2023-01-06T02:01:44;-1.40;99.90
32215;DHT22;18708;53.124;23.190;2023-01-06T02:04:10;-1.40;99.90
32215;DHT22;18708;53.124;23.190;2023-01-06T02:06:36;-1.40;99.90
32215;DHT22;18708;53.124;23.190;2023-01-06T02:09:15;-1.40;99.90
32215;DHT22;18708;53.124;23.190;2023-01-06T02:11:42;-1.40;99.90
32215;DHT22;18708;53.124;23.190;2023-01-06T02:14:14;-1.40;99.90
32215;DHT22;18708;53.124;23.190;2023-01-06T02:30:50;-1.60;99.90
32215;DHT22;18708;53.124;23.190;2023-01-06T02:33:24;-1.60;99.90
32215;DHT22;18708;53.124;23.190;2023-01-06T02:39:00;-1.60;99.90
32215;DHT22;18708;53.124;23.190;2023-01-06T02:41:45;-1.70;99.90
32215;DHT22;18708;53.124;23.190;2023-01-06T02:55:08;-1.90;99.90
32215;DHT22;18708;53.124;23.190;2023-01-06T03:00:19;-2.10;99.90
32215;DHT22;18708;53.124;23.190;2023-01-06T03:02:51;-2.20;99.90
32215;DHT22;18708;53.124;23.190;2023-01-06T03:05:20;-2.20;99.90
32215;DHT22;18708;53.124;23.190;2023-01-06T03:07:47;-2.20;99.90
32215;DHT22;18708;53.124;23.190;2023-01-06T03:10:15;-2.20;99.90
32215;DHT22;18708;53.124;23.190;2023-01-06T03:12:59;-2.20;99.90
32215;DHT22;18708;53.124;23.190;2023-01-06T03:15:25;-2.30;99.90
32215;DHT22;18708;53.124;23.190;2023-01-06T03:17:51;-2.40;99.90
32215;DHT22;18708;53.124;23.190;2023-01-06T03:20:17;-2.50;99.90
32215;DHT22;18708;53.124;23.190;2023-01-06T03:22:44;-2.60;96.90
32215;DHT22;18708;53.124;23.190;2023-01-06T03:25:10;-2.60;90.70
32215;DHT22;18708;53.124;23.190;2023-01-06T03:27:36;-2.70;99.90
32215;DHT22;18708;53.124;23.190;2023-01-06T03:30:04;-2.70;99.10
32215;DHT22;18708;53.124;23.190;2023-01-06T03:41:32;-2.90;76.80
32215;DHT22;18708;53.124;23.190;2023-01-06T03:44:32;-3.00;85.00
32215;DHT22;18708;53.124;23.190;2023-01-06T03:47:06;-3.00;99.90
32215;DHT22;18708;53.124;23.190;2023-01-06T03:50:01;-3.00;70.10
32215;DHT22;18708;53.124;23.190;2023-01-06T03:52:30;-3.00;50.30
32215;DHT22;18708;53.124;23.190;2023-01-06T03:55:07;-3.10;37.30
32215;DHT22;18708;53.124;23.190;2023-01-06T03:57:37;-3.10;56.90
32215;DHT22;18708;53.124;23.190;2023-01-06T04:00:22;-3.10;82.60
32215;DHT22;18708;53.124;23.190;2023-01-06T04:02:49;-3.10;99.40
32215;DHT22;18708;53.124;23.190;2023-01-06T04:05:18;-3.10;40.90
32215;DHT22;18708;53.124;23.190;2023-01-06T04:07:44;-3.20;40.10
32215;DHT22;18708;53.124;23.190;2023-01-06T04:10:11;-3.20;49.80
32215;DHT22;18708;53.124;23.190;2023-01-06T04:12:38;-3.20;37.60
32215;DHT22;18708;53.124;23.190;2023-01-06T04:15:05;-3.30;36.60
32215;DHT22;18708;53.124;23.190;2023-01-06T04:17:32;-3.30;81.70
32215;DHT22;18708;53.124;23.190;2023-01-06T04:19:57;-3.30;26.70
32215;DHT22;18708;53.124;23.190;2023-01-06T04:22:23;-3.30;13.70
32215;DHT22;18708;53.124;23.190;2023-01-06T04:24:49;-3.30;1.90
32215;DHT22;18708;53.124;23.190;2023-01-06T04:27:15;-3.40;1.00
32215;DHT22;18708;53.124;23.190;2023-01-06T04:29:40;-3.40;17.40
32215;DHT22;18708;53.124;23.190;2023-01-06T04:32:06;-3.40;15.30
32215;DHT22;18708;53.124;23.190;2023-01-06T04:34:31;-3.40;2.00
32215;DHT22;18708;53.124;23.190;2023-01-06T04:36:57;-3.50;23.10
32215;DHT22;18708;53.124;23.190;2023-01-06T04:39:25;-3.50;1.00
32215;DHT22;18708;53.124;23.190;2023-01-06T04:41:50;-3.40;1.00
32215;DHT22;18708;53.124;23.190;2023-01-06T04:44:16;-3.40;1.00
32215;DHT22;18708;53.124;23.190;2023-01-06T04:46:41;-3.40;1.00
32215;DHT22;18708;53.124;23.190;2023-01-06T04:49:07;-3.40;1.00
32215;DHT22;18708;53.124;23.190;2023-01-06T04:51:33;-3.40;1.00
32215;DHT22;18708;53.124;23.190;2023-01-06T04:53:58;-3.60;1.00
32215;DHT22;18708;53.124;23.190;2023-01-06T04:56:24;-3.60;1.00
32215;DHT22;18708;53.124;23.190;2023-01-06T04:58:56;-3.60;1.00
32215;DHT22;18708;53.124;23.190;2023-01-06T05:01:22;-3.60;13.70
32215;DHT22;18708;53.124;23.190;2023-01-06T05:03:48;-3.60;50.70
32215;DHT22;18708;53.124;23.190;2023-01-06T05:06:14;-3.60;71.10
32215;DHT22;18708;53.124;23.190;2023-01-06T05:08:41;-3.60;21.10
32215;DHT22;18708;53.124;23.190;2023-01-06T05:11:10;-3.50;27.70
32215;DHT22;18708;53.124;23.190;2023-01-06T05:13:36;-3.50;23.00
32215;DHT22;18708;53.124;23.190;2023-01-06T05:16:15;-3.50;13.20
32215;DHT22;18708;53.124;23.190;2023-01-06T05:18:41;-3.50;10.50
32215;DHT22;18708;53.124;23.190;2023-01-06T05:21:07;-3.40;3.50
32215;DHT22;18708;53.124;23.190;2023-01-06T05:23:35;-3.40;2.60
32215;DHT22;18708;53.124;23.190;2023-01-06T05:26:00;-3.50;8.90
32215;DHT22;18708;53.124;23.190;2023-01-06T05:28:28;-3.50;1.00
32215;DHT22;18708;53.124;23.190;2023-01-06T05:30:58;-3.50;8.40
32215;DHT22;18708;53.124;23.190;2023-01-06T05:33:24;-3.40;1.00
32215;DHT22;18708;53.124;23.190;2023-01-06T05:35:58;-3.40;1.00
32215;DHT22;18708;53.124;23.190;2023-01-06T05:38:26;-3.50;1.00
32215;DHT22;18708;53.124;23.190;2023-01-06T05:40:53;-3.50;3.40
32215;DHT22;18708;53.124;23.190;2023-01-06T05:43:19;-3.40;2.10
32215;DHT22;18708;53.124;23.190;2023-01-06T05:45:45;-3.50;1.00
32215;DHT22;18708;53.124;23.190;2023-01-06T05:48:11;-3.50;1.00
32215;DHT22;18708;53.124;23.190;2023-01-06T05:50:38;-3.60;1.60
32215;DHT22;18708;53.124;23.190;2023-01-06T05:53:04;-3.60;1.00
32215;DHT22;18708;53.124;23.190;2023-01-06T05:55:30;-3.60;16.60
32215;DHT22;18708;53.124;23.190;2023-01-06T05:57:55;-3.60;8.80
32215;DHT22;18708;53.124;23.190;2023-01-06T06:00:21;-3.50;37.30
32215;DHT22;18708;53.124;23.190;2023-01-06T06:02:47;-3.60;24.10
32215;DHT22;18708;53.124;23.190;2023-01-06T06:05:12;-3.50;6.60
32215;DHT22;18708;53.124;23.190;2023-01-06T06:07:38;-3.50;22.60
32215;DHT22;18708;53.124;23.190;2023-01-06T06:10:04;-3.50;10.00
32215;DHT22;18708;53.124;23.190;2023-01-06T06:12:30;-3.60;1.00
32215;DHT22;18708;53.124;23.190;2023-01-06T06:14:55;-3.60;1.00
32215;DHT22;18708;53.124;23.190;2023-01-06T06:17:21;-3.60;1.00
32215;DHT22;18708;53.124;23.190;2023-01-06T06:19:47;-3.60;27.60
32215;DHT22;18708;53.124;23.190;2023-01-06T06:22:12;-3.60;1.00
32215;DHT22;18708;53.124;23.190;2023-01-06T06:24:40;-3.60;1.00
32215;DHT22;18708;53.124;23.190;2023-01-06T06:27:06;-3.60;1.00
32215;DHT22;18708;53.124;23.190;2023-01-06T06:29:32;-3.60;1.00
32215;DHT22;18708;53.124;23.190;2023-01-06T06:31:57;-3.70;1.00
32215;DHT22;18708;53.124;23.190;2023-01-06T06:34:25;-3.70;1.00
32215;DHT22;18708;53.124;23.190;2023-01-06T06:36:51;-3.70;1.00
32215;DHT22;18708;53.124;23.190;2023-01-06T06:39:17;-3.70;12.00
32215;DHT22;18708;53.124;23.190;2023-01-06T06:41:43;-3.80;1.00
32215;DHT22;18708;53.124;23.190;2023-01-06T06:44:08;-3.80;1.00
32215;DHT22;18708;53.124;23.190;2023-01-06T06:46:34;-3.70;1.00
32215;DHT22;18708;53.124;23.190;2023-01-06T06:48:59;-3.70;1.00
32215;DHT22;18708;53.124;23.190;2023-01-06T06:51:25;-3.70;1.00
32215;DHT22;18708;53.124;23.190;2023-01-06T06:53:51;-3.70;1.00
32215;DHT22;18708;53.124;23.190;2023-01-06T06:56:19;-3.60;1.00
32215;DHT22;18708;53.124;23.190;2023-01-06T06:58:45;-3.60;1.00
32215;DHT22;18708;53.124;23.190;2023-01-06T07:01:18;-3.60;99.90
32215;DHT22;18708;53.124;23.190;2023-01-06T07:03:45;-3.80;11.90
32215;DHT22;18708;53.124;23.190;2023-01-06T07:06:13;-3.70;1.00
32215;DHT22;18708;53.124;23.190;2023-01-06T07:08:43;-3.80;99.90
32215;DHT22;18708;53.124;23.190;2023-01-06T07:11:09;-3.80;80.00
32215;DHT22;18708;53.124;23.190;2023-01-06T07:13:34;-3.80;1.00
32215;DHT22;18708;53.124;23.190;2023-01-06T07:16:03;-3.70;1.00
32215;DHT22;18708;53.124;23.190;2023-01-06T07:18:29;-3.80;99.90
32215;DHT22;18708;53.124;23.190;2023-01-06T07:20:54;-3.90;99.90
32215;DHT22;18708;53.124;23.190;2023-01-06T07:23:21;-3.90;99.90
32215;DHT22;18708;53.124;23.190;2023-01-06T07:25:54;-3.90;99.90
32215;DHT22;18708;53.124;23.190;2023-01-06T07:28:20;-3.90;99.90
32215;DHT22;18708;53.124;23.190;2023-01-06T07:30:46;-3.90;99.90
32215;DHT22;18708;53.124;23.190;2023-01-06T07:33:11;-3.80;90.60
32215;DHT22;18708;53.124;23.190;2023-01-06T07:35:37;-3.80;99.90
32215;DHT22;18708;53.124;23.190;2023-01-06T07:38:04;-3.90;1.00
32215;DHT22;18708;53.124;23.190;2023-01-06T07:40:30;-4.00;99.90
32215;DHT22;18708;53.124;23.190;2023-01-06T07:42:56;-4.10;99.90
32215;DHT22;18708;53.124;23.190;2023-01-06T07:45:21;-3.90;1.00
32215;DHT22;18708;53.124;23.190;2023-01-06T07:47:47;-4.10;99.90
32215;DHT22;18708;53.124;23.190;2023-01-06T07:50:12;-4.00;99.90
32215;DHT22;18708;53.124;23.190;2023-01-06T07:52:38;-4.00;99.90
32215;DHT22;18708;53.124;23.190;2023-01-06T07:55:04;-3.90;1.00
32215;DHT22;18708;53.124;23.190;2023-01-06T07:57:30;-3.90;99.90
32215;DHT22;18708;53.124;23.190;2023-01-06T07:59:55;-3.80;99.90
32215;DHT22;18708;53.124;23.190;2023-01-06T08:02:22;-3.80;24.40
32215;DHT22;18708;53.124;23.190;2023-01-06T08:04:48;-3.80;1.00
32215;DHT22;18708;53.124;23.190;2023-01-06T08:07:14;-3.80;1.00
32215;DHT22;18708;53.124;23.190;2023-01-06T08:09:40;-3.80;1.00
32215;DHT22;18708;53.124;23.190;2023-01-06T08:12:06;-3.80;1.00
32215;DHT22;18708;53.124;23.190;2023-01-06T08:14:32;-3.80;1.00
32215;DHT22;18708;53.124;23.190;2023-01-06T08:16:57;-3.90;1.00
32215;DHT22;18708;53.124;23.190;2023-01-06T08:19:23;-3.80;1.00
32215;DHT22;18708;53.124;23.190;2023-01-06T08:21:48;-3.90;1.00
32215;DHT22;18708;53.124;23.190;2023-01-06T08:24:14;-3.80;1.00
32215;DHT22;18708;53.124;23.190;2023-01-06T08:26:40;-3.90;99.90
32215;DHT22;18708;53.124;23.190;2023-01-06T08:29:06;-4.00;99.90
32215;DHT22;18708;53.124;23.190;2023-01-06T08:31:32;-4.00;1.00
32215;DHT22;18708;53.124;23.190;2023-01-06T08:34:01;-3.90;1.00
32215;DHT22;18708;53.124;23.190;2023-01-06T08:36:27;-3.80;1.00
32215;DHT22;18708;53.124;23.190;2023-01-06T08:38:52;-3.70;1.00
32215;DHT22;18708;53.124;23.190;2023-01-06T08:41:18;-3.60;1.00
32215;DHT22;18708;53.124;23.190;2023-01-06T08:43:45;-3.70;1.00
32215;DHT22;18708;53.124;23.190;2023-01-06T08:46:13;-3.60;1.00
32215;DHT22;18708;53.124;23.190;2023-01-06T08:48:39;-3.50;1.00
32215;DHT22;18708;53.124;23.190;2023-01-06T08:51:09;-3.60;1.00
32215;DHT22;18708;53.124;23.190;2023-01-06T08:53:34;-3.70;1.00
32215;DHT22;18708;53.124;23.190;2023-01-06T08:56:00;-3.80;1.00
32215;DHT22;18708;53.124;23.190;2023-01-06T08:58:26;-3.90;1.00
32215;DHT22;18708;53.124;23.190;2023-01-06T09:00:52;-3.80;1.00
32215;DHT22;18708;53.124;23.190;2023-01-06T09:03:17;-3.80;1.00
32215;DHT22;18708;53.124;23.190;2023-01-06T09:05:50;-3.70;1.00
32215;DHT22;18708;53.124;23.190;2023-01-06T09:08:16;-3.70;1.00
32215;DHT22;18708;53.124;23.190;2023-01-06T09:10:41;-3.70;1.00
32215;DHT22;18708;53.124;23.190;2023-01-06T09:13:08;-3.70;1.00
32215;DHT22;18708;53.124;23.190;2023-01-06T09:15:38;-3.60;1.00
32215;DHT22;18708;53.124;23.190;2023-01-06T09:18:04;-3.60;1.00
32215;DHT22;18708;53.124;23.190;2023-01-06T09:20:30;-3.50;1.00
32215;DHT22;18708;53.124;23.190;2023-01-06T09:23:00;-3.70;1.00
32215;DHT22;18708;53.124;23.190;2023-01-06T09:25:25;-3.70;1.00
32215;DHT22;18708;53.124;23.190;2023-01-06T09:27:51;-3.70;10.50
32215;DHT22;18708;53.124;23.190;2023-01-06T09:30:17;-3.60;1.00
32215;DHT22;18708;53.124;23.190;2023-01-06T09:32:42;-3.70;1.00
32215;DHT22;18708;53.124;23.190;2023-01-06T09:35:09;-3.80;1.00
32215;DHT22;18708;53.124;23.190;2023-01-06T09:37:37;-4.10;1.00
32215;DHT22;18708;53.124;23.190;2023-01-06T09:40:03;-4.20;1.00
32215;DHT22;18708;53.124;23.190;2023-01-06T09:42:54;-4.40;1.00
32215;DHT22;18708;53.124;23.190;2023-01-06T09:45:45;-4.30;1.00
32215;DHT22;18708;53.124;23.190;2023-01-06T09:48:23;-4.30;1.00
32215;DHT22;18708;53.124;23.190;2023-01-06T09:50:53;-4.10;99.90
32215;DHT22;18708;53.124;23.190;2023-01-06T09:53:37;-4.00;99.90
32215;DHT22;18708;53.124;23.190;2023-01-06T09:56:11;-3.90;99.90
32215;DHT22;18708;53.124;23.190;2023-01-06T09:58:42;-3.80;27.20
32215;DHT22;18708;53.124;23.190;2023-01-06T10:01:13;-3.60;1.00
32215;DHT22;18708;53.124;23.190;2023-01-06T10:03:42;-3.60;1.00
32215;DHT22;18708;53.124;23.190;2023-01-06T10:06:36;-3.90;1.00
32215;DHT22;18708;53.124;23.190;2023-01-06T10:17:29;-3.50;1.00
32215;DHT22;18708;53.124;23.190;2023-01-06T10:23:05;-3.30;99.90
32215;DHT22;18708;53.124;23.190;2023-01-06T10:25:33;-3.40;1.00
32215;DHT22;18708;53.124;23.190;2023-01-06T10:28:12;-3.40;99.90
32215;DHT22;18708;53.124;23.190;2023-01-06T10:30:43;-3.30;92.60
32215;DHT22;18708;53.124;23.190;2023-01-06T10:33:34;-3.60;1.00
32215;DHT22;18708;53.124;23.190;2023-01-06T10:36:01;-3.90;1.00
32215;DHT22;18708;53.124;23.190;2023-01-06T10:38:37;-3.80;99.90
32215;DHT22;18708;53.124;23.190;2023-01-06T10:43:58;-3.60;75.10
32215;DHT22;18708;53.124;23.190;2023-01-06T10:46:32;-3.40;1.00
32215;DHT22;18708;53.124;23.190;2023-01-06T10:49:01;-3.40;1.00
32215;DHT22;18708;53.124;23.190;2023-01-06T10:51:48;-3.40;1.00
32215;DHT22;18708;53.124;23.190;2023-01-06T10:54:22;-3.50;1.00
32215;DHT22;18708;53.124;23.190;2023-01-06T10:57:00;-3.50;42.90
32215;DHT22;18708;53.124;23.190;2023-01-06T10:59:28;-3.30;1.00
32215;DHT22;18708;53.124;23.190;2023-01-06T11:01:55;-3.20;1.00
32215;DHT22;18708;53.124;23.190;2023-01-06T11:04:25;-3.20;1.00
32215;DHT22;18708;53.124;23.190;2023-01-06T11:06:58;-3.30;1.00
32215;DHT22;18708;53.124;23.190;2023-01-06T11:09:32;-3.30;1.00
32215;DHT22;18708;53.124;23.190;2023-01-06T11:12:22;-3.70;1.00
32215;DHT22;18708;53.124;23.190;2023-01-06T11:14:56;-3.80;1.00
32215;DHT22;18708;53.124;23.190;2023-01-06T11:17:23;-3.80;1.00
32215;DHT22;18708;53.124;23.190;2023-01-06T11:20:10;-3.60;1.00
32215;DHT22;18708;53.124;23.190;2023-01-06T11:22:49;-3.50;1.00
32215;DHT22;18708;53.124;23.190;2023-01-06T11:25:25;-3.80;1.00
32215;DHT22;18708;53.124;23.190;2023-01-06T11:28:17;-4.00;1.00
32215;DHT22;18708;53.124;23.190;2023-01-06T11:31:20;-3.90;1.00
32215;DHT22;18708;53.124;23.190;2023-01-06T11:33:58;-4.00;1.00
32215;DHT22;18708;53.124;23.190;2023-01-06T11:36:27;-3.90;1.00
32215;DHT22;18708;53.124;23.190;2023-01-06T11:39:00;-3.80;1.00
32215;DHT22;18708;53.124;23.190;2023-01-06T11:41:37;-3.60;1.00
32215;DHT22;18708;53.124;23.190;2023-01-06T11:44:16;-3.50;1.00
32215;DHT22;18708;53.124;23.190;2023-01-06T11:46:53;-3.50;1.00
32215;DHT22;18708;53.124;23.190;2023-01-06T11:49:44;-3.50;1.00
32215;DHT22;18708;53.124;23.190;2023-01-06T11:54:42;-3.30;1.00
32215;DHT22;18708;53.124;23.190;2023-01-06T12:00:35;-3.20;1.00
32215;DHT22;18708;53.124;23.190;2023-01-06T12:03:12;-3.00;1.00
32215;DHT22;18708;53.124;23.190;2023-01-06T12:08:19;-3.00;1.00
32215;DHT22;18708;53.124;23.190;2023-01-06T12:10:52;-3.00;1.00
32215;DHT22;18708;53.124;23.190;2023-01-06T12:13:19;-3.00;1.00
32215;DHT22;18708;53.124;23.190;2023-01-06T12:15:48;-3.10;1.00
32215;DHT22;18708;53.124;23.190;2023-01-06T12:18:21;-3.50;1.00
32215;DHT22;18708;53.124;23.190;2023-01-06T12:20:50;-3.40;1.00
32215;DHT22;18708;53.124;23.190;2023-01-06T12:23:28;-3.50;1.00
32215;DHT22;18708;53.124;23.190;2023-01-06T12:25:57;-3.90;1.00
32215;DHT22;18708;53.124;23.190;2023-01-06T12:28:34;-4.10;1.00
32215;DHT22;18708;53.124;23.190;2023-01-06T12:31:12;-4.10;1.00
32215;DHT22;18708;53.124;23.190;2023-01-06T12:36:47;-4.10;1.00
32215;DHT22;18708;53.124;23.190;2023-01-06T12:39:26;-4.10;1.00
32215;DHT22;18708;53.124;23.190;2023-01-06T12:42:06;-4.10;1.00
32215;DHT22;18708;53.124;23.190;2023-01-06T12:44:40;-4.20;1.00
32215;DHT22;18708;53.124;23.190;2023-01-06T12:49:42;-4.20;1.00
32215;DHT22;18708;53.124;23.190;2023-01-06T12:54:54;-4.20;1.00
32215;DHT22;18708;53.124;23.190;2023-01-06T13:08:05;-4.00;1.00
32215;DHT22;18708;53.124;23.190;2023-01-06T13:13:38;-3.80;1.00
32215;DHT22;18708;53.124;23.190;2023-01-06T13:16:18;-3.70;1.00
32215;DHT22;18708;53.124;23.190;2023-01-06T13:19:00;-3.70;1.00
32215;DHT22;18708;53.124;23.190;2023-01-06T13:21:27;-3.80;1.00
32215;DHT22;18708;53.124;23.190;2023-01-06T13:26:50;-3.60;1.00
32215;DHT22;18708;53.124;23.190;2023-01-06T13:29:47;-3.60;1.00
32215;DHT22;18708;53.124;23.190;2023-01-06T13:35:37;-3.80;1.00
32215;DHT22;18708;53.124;23.190;2023-01-06T13:41:11;-3.80;1.00
32215;DHT22;18708;53.124;23.190;2023-01-06T13:43:38;-3.70;1.00
32215;DHT22;18708;53.124;23.190;2023-01-06T13:46:08;-3.70;1.00
32215;DHT22;18708;53.124;23.190;2023-01-06T13:48:42;-3.70;1.00
32215;DHT22;18708;53.124;23.190;2023-01-06T13:51:09;-3.60;1.00
32215;DHT22;18708;53.124;23.190;2023-01-06T13:53:41;-3.60;1.00
32215;DHT22;18708;53.124;23.190;2023-01-06T13:58:40;-3.80;1.00
32215;DHT22;18708;53.124;23.190;2023-01-06T14:03:45;-3.90;1.00
32215;DHT22;18708;53.124;23.190;2023-01-06T14:09:02;-4.10;1.00
32215;DHT22;18708;53.124;23.190;2023-01-06T14:11:30;-4.10;1.00
32215;DHT22;18708;53.124;23.190;2023-01-06T14:13:59;-4.00;1.00
32215;DHT22;18708;53.124;23.190;2023-01-06T14:17:01;-3.90;1.00
32215;DHT22;18708;53.124;23.190;2023-01-06T14:19:30;-3.80;1.00
32215;DHT22;18708;53.124;23.190;2023-01-06T14:22:15;-3.90;1.00
32215;DHT22;18708;53.124;23.190;2023-01-06T14:24:47;-4.00;1.00
32215;DHT22;18708;53.124;23.190;2023-01-06T14:27:13;-4.00;1.00
32215;DHT22;18708;53.124;23.190;2023-01-06T14:34:40;-4.10;1.00
32215;DHT22;18708;53.124;23.190;2023-01-06T14:37:14;-4.20;21.20
32215;DHT22;18708;53.124;23.190;2023-01-06T14:39:45;-4.10;95.90
32215;DHT22;18708;53.124;23.190;2023-01-06T14:42:18;-4.20;66.60
32215;DHT22;18708;53.124;23.190;2023-01-06T14:44:50;-4.20;99.90
32215;DHT22;18708;53.124;23.190;2023-01-06T14:47:26;-4.20;99.90
32215;DHT22;18708;53.124;23.190;2023-01-06T14:49:56;-4.10;99.90
32215;DHT22;18708;53.124;23.190;2023-01-06T14:52:31;-4.10;99.90
32215;DHT22;18708;53.124;23.190;2023-01-06T14:54:58;-4.20;99.90
32215;DHT22;18708;53.124;23.190;2023-01-06T14:57:31;-4.30;99.90
32215;DHT22;18708;53.124;23.190;2023-01-06T15:00:16;-4.30;99.90
32215;DHT22;18708;53.124;23.190;2023-01-06T15:02:51;-4.30;99.90
32215;DHT22;18708;53.124;23.190;2023-01-06T15:05:23;-4.30;99.90
32215;DHT22;18708;53.124;23.190;2023-01-06T15:10:30;-4.30;99.90
32215;DHT22;18708;53.124;23.190;2023-01-06T15:12:59;-4.20;1.00
32215;DHT22;18708;53.124;23.190;2023-01-06T15:15:30;-4.20;1.00
32215;DHT22;18708;53.124;23.190;2023-01-06T15:17:59;-4.20;1.00
32215;DHT22;18708;53.124;23.190;2023-01-06T15:20:39;-4.20;1.00
32215;DHT22;18708;53.124;23.190;2023-01-06T15:23:06;-4.20;1.00
32215;DHT22;18708;53.124;23.190;2023-01-06T15:25:35;-4.20;1.00
32215;DHT22;18708;53.124;23.190;2023-01-06T15:28:02;-4.20;1.00
32215;DHT22;18708;53.124;23.190;2023-01-06T15:30:28;-4.30;1.00
32215;DHT22;18708;53.124;23.190;2023-01-06T15:32:59;-4.20;1.00
32215;DHT22;18708;53.124;23.190;2023-01-06T15:35:28;-4.30;1.00
32215;DHT22;18708;53.124;23.190;2023-01-06T15:38:19;-4.20;1.00
32215;DHT22;18708;53.124;23.190;2023-01-06T15:40:48;-4.20;99.90
32215;DHT22;18708;53.124;23.190;2023-01-06T15:43:15;-4.30;1.00
32215;DHT22;18708;53.124;23.190;2023-01-06T15:45:42;-4.30;1.00
32215;DHT22;18708;53.124;23.190;2023-01-06T15:48:10;-4.30;1.00
32215;DHT22;18708;53.124;23.190;2023-01-06T15:50:39;-4.30;1.00
32215;DHT22;18708;53.124;23.190;2023-01-06T15:53:05;-4.30;1.00
32215;DHT22;18708;53.124;23.190;2023-01-06T15:55:40;-4.40;1.00
32215;DHT22;18708;53.124;23.190;2023-01-06T15:58:30;-4.40;1.00
32215;DHT22;18708;53.124;23.190;2023-01-06T16:01:11;-4.40;1.00
32215;DHT22;18708;53.124;23.190;2023-01-06T16:03:38;-4.50;1.00
32215;DHT22;18708;53.124;23.190;2023-01-06T16:08:32;-4.50;99.90
32215;DHT22;18708;53.124;23.190;2023-01-06T16:14:03;-4.50;99.90
32215;DHT22;18708;53.124;23.190;2023-01-06T16:16:32;-4.50;1.00
32215;DHT22;18708;53.124;23.190;2023-01-06T16:19:11;-4.50;1.00
32215;DHT22;18708;53.124;23.190;2023-01-06T16:21:38;-4.60;1.00
32215;DHT22;18708;53.124;23.190;2023-01-06T16:24:13;-4.60;1.00
32215;DHT22;18708;53.124;23.190;2023-01-06T16:26:44;-4.70;1.00
32215;DHT22;18708;53.124;23.190;2023-01-06T16:29:46;-4.70;1.00
32215;DHT22;18708;53.124;23.190;2023-01-06T16:32:41;-4.70;30.40
32215;DHT22;18708;53.124;23.190;2023-01-06T16:35:13;-4.60;43.90
32215;DHT22;18708;53.124;23.190;2023-01-06T16:37:39;-4.70;1.00
32215;DHT22;18708;53.124;23.190;2023-01-06T16:40:05;-4.70;1.00
32215;DHT22;18708;53.124;23.190;2023-01-06T16:42:32;-4.80;1.00
32215;DHT22;18708;53.124;23.190;2023-01-06T16:47:48;-4.80;1.00
32215;DHT22;18708;53.124;23.190;2023-01-06T16:52:50;-4.90;1.00
32215;DHT22;18708;53.124;23.190;2023-01-06T16:55:18;-4.90;1.00
32215;DHT22;18708;53.124;23.190;2023-01-06T16:57:49;-4.90;1.00
32215;DHT22;18708;53.124;23.190;2023-01-06T17:00:24;-4.90;1.00
32215;DHT22;18708;53.124;23.190;2023-01-06T17:02:50;-4.90;1.00
32215;DHT22;18708;53.124;23.190;2023-01-06T17:05:21;-4.90;1.00
32215;DHT22;18708;53.124;23.190;2023-01-06T17:07:48;-4.90;1.00
32215;DHT22;18708;53.124;23.190;2023-01-06T17:10:21;-5.00;1.00
32215;DHT22;18708;53.124;23.190;2023-01-06T17:12:56;-4.90;1.00
32215;DHT22;18708;53.124;23.190;2023-01-06T17:15:41;-4.90;1.00
32215;DHT22;18708;53.124;23.190;2023-01-06T17:18:27;-5.00;1.00
32215;DHT22;18708;53.124;23.190;2023-01-06T17:21:07;-5.00;1.00
32215;DHT22;18708;53.124;23.190;2023-01-06T17:23:52;-5.00;1.00
32215;DHT22;18708;53.124;23.190;2023-01-06T17:26:20;-5.00;1.00
32215;DHT22;18708;53.124;23.190;2023-01-06T17:28:48;-5.10;1.00
32215;DHT22;18708;53.124;23.190;2023-01-06T17:31:24;-5.10;1.00
32215;DHT22;18708;53.124;23.190;2023-01-06T17:33:52;-5.10;1.00
32215;DHT22;18708;53.124;23.190;2023-01-06T17:36:24;-5.10;1.00
32215;DHT22;18708;53.124;23.190;2023-01-06T17:38:51;-5.10;1.00
32215;DHT22;18708;53.124;23.190;2023-01-06T17:41:18;-5.10;1.00
32215;DHT22;18708;53.124;23.190;2023-01-06T17:43:44;-5.10;1.00